San Diego, California
Traffic Map
Current Weather Conditions
San Diego, California
Overcast
Overcast
20°
Feels Like: 20°
Wind Chill: 20° Ceiling: 2300
Heat Index: 20° Visibility: 10mi
Dew Point: 14° Wind: 3mph
Humidity: 68% Direction: 340° (NNW)
Pressure: 29.98in Gusts: 0mph
Raw Report DataKSAN 270751Z 34003KT 10SM OVC023 20/14 A2998 RMK AO2 SLP150 T02000139 402280189
Traffic Incident Summary
Active as of:
Severity:
Category:
InformationThere was an issue retrieving the traffic information for this location. Please try a different location or try again shortly.
Advertisements
Track Severe Weather on mobile